Time;durP1;ratioP1;P1;durP2;ratioP2;P2;SDS_P1;SDS_P2;PMS_P1;PMS_P2;Temp;Humidity;BMP_temperature;BMP_pressure;BME280_temperature;BME280_humidity;BME280_pressure;Samples;Min_cycle;Max_cycle;Signal;HPM_P1;HPM_P2
2022/08/06 00:02:02;;;;;;;5.50;1.80;;;;;;;12.43;nan;102489.91;5034052;28;20038;-55
2022/08/06 00:04:27;;;;;;;5.30;2.40;;;;;;;12.46;nan;102501.31;5035224;28;20539;-54
2022/08/06 00:06:53;;;;;;;6.07;2.15;;;;;;;12.49;nan;102508.31;5035223;28;20049;-54
2022/08/06 00:09:18;;;;;;;3.58;1.80;;;;;;;12.43;nan;102507.47;5034924;28;20048;-58
2022/08/06 00:11:43;;;;;;;6.85;2.00;;;;;;;12.47;nan;102510.06;5034873;28;20136;-53
2022/08/06 00:14:09;;;;;;;3.42;1.92;;;;;;;12.07;nan;102451.66;5034620;28;20072;-54
2022/08/06 00:16:34;;;;;;;4.07;2.30;;;;;;;12.40;nan;102499.59;5033837;28;20033;-59
2022/08/06 00:19:00;;;;;;;5.03;2.05;;;;;;;12.08;nan;102453.41;5033513;28;20034;-50
2022/08/06 00:21:25;;;;;;;3.78;2.28;;;;;;;12.32;nan;102503.25;5033380;28;20084;-48
2022/08/06 00:23:50;;;;;;;4.30;2.67;;;;;;;12.36;nan;102515.53;5033332;28;20045;-50
2022/08/06 00:26:16;;;;;;;4.93;2.28;;;;;;;12.22;nan;102488.44;5034665;28;20519;-49
2022/08/06 00:28:41;;;;;;;4.43;2.28;;;;;;;12.06;nan;102473.66;5034525;28;20235;-58
2022/08/06 00:31:09;;;;;;;5.80;2.67;;;;;;;12.08;nan;102483.34;5034242;28;20050;-48
2022/08/06 00:33:35;;;;;;;7.15;2.33;;;;;;;12.18;nan;102516.63;5033361;28;20029;-57
2022/08/06 00:36:00;;;;;;;4.90;2.72;;;;;;;12.18;nan;102515.75;5033663;28;20078;-51
2022/08/06 00:38:26;;;;;;;7.28;2.72;;;;;;;12.11;nan;102514.94;5033320;28;20029;-48
2022/08/06 00:40:52;;;;;;;5.65;2.15;;;;;;;12.13;nan;102530.78;5034418;28;20042;-53
2022/08/06 00:43:18;;;;;;;7.10;2.08;;;;;;;11.87;nan;102482.72;5033102;28;20048;-53
2022/08/06 00:45:43;;;;;;;6.93;2.28;;;;;;;12.16;nan;102543.94;5033186;28;20033;-53
2022/08/06 00:48:08;;;;;;;4.05;2.05;;;;;;;12.10;nan;102544.88;5033122;28;20071;-52
2022/08/06 00:50:34;;;;;;;4.53;1.90;;;;;;;11.77;nan;102487.22;5033182;28;20070;-55
2022/08/06 00:53:00;;;;;;;6.05;2.15;;;;;;;12.06;nan;102548.44;5034276;28;20462;-49
2022/08/06 00:55:26;;;;;;;6.70;2.20;;;;;;;12.09;nan;102550.16;5032830;28;20228;-51
2022/08/06 00:57:51;;;;;;;5.82;2.15;;;;;;;12.09;nan;102555.44;5034087;28;20105;-51
2022/08/06 01:00:16;;;;;;;4.88;2.40;;;;;;;12.04;nan;102558.16;5034047;28;20029;-49
2022/08/06 01:02:42;;;;;;;5.43;2.30;;;;;;;12.01;nan;102549.38;5032880;28;20123;-49
2022/08/06 01:05:07;;;;;;;11.02;2.40;;;;;;;11.94;nan;102548.56;5034229;28;20041;-59
2022/08/06 01:07:33;;;;;;;4.97;2.08;;;;;;;12.00;nan;102548.50;5033974;28;20041;-48
2022/08/06 01:09:58;;;;;;;5.68;1.90;;;;;;;11.64;nan;102486.47;5032072;28;20041;-55
2022/08/06 01:12:24;;;;;;;7.30;2.15;;;;;;;11.96;nan;102556.50;5033844;28;20041;-54
2022/08/06 01:14:49;;;;;;;4.88;1.98;;;;;;;11.57;nan;102492.66;5033628;28;20033;-49
2022/08/06 01:17:29;;;;;;;4.28;1.95;;;;;;;11.80;nan;102532.91;5033808;28;20368;-53
2022/08/06 01:20:03;;;;;;;3.03;1.45;;;;;;;11.93;nan;102564.44;5032723;28;20528;-52
2022/08/06 01:23:06;;;;;;;8.02;2.05;;;;;;;11.91;nan;102560.97;5032393;28;20044;-48
2022/08/06 01:26:09;;;;;;;4.90;2.00;;;;;;;11.93;nan;102556.53;5032791;28;20025;-56
2022/08/06 01:28:43;;;;;;;5.43;1.80;;;;;;;11.50;nan;102493.59;5033500;28;20427;-54
2022/08/06 01:31:10;;;;;;;4.65;2.03;;;;;;;11.85;nan;102554.81;5033227;28;20060;-49
2022/08/06 01:33:47;;;;;;;5.32;2.20;;;;;;;11.84;nan;102563.66;5033764;28;20427;-51
2022/08/06 01:36:18;;;;;;;3.83;1.55;;;;;;;11.83;nan;102561.91;5032090;28;20029;-49
2022/08/06 01:38:48;;;;;;;;;;;;;;;11.81;nan;102555.78;5032957;28;20044;-52
2022/08/06 01:42:01;;;;;;;8.73;2.00;;;;;;;11.80;nan;102555.78;5015602;28;19924;-49
2022/08/06 01:44:03;;;;;;;5.28;1.52;;;;;;;11.81;nan;102553.13;5024859;28;20041;-51
2022/08/06 01:46:28;;;;;;;5.18;2.47;;;;;;;11.80;nan;102561.03;5032228;28;20037;-48
2022/08/06 01:48:55;;;;;;;4.57;1.80;;;;;;;11.79;nan;102551.41;5031902;28;20040;-48
2022/08/06 01:51:22;;;;;;;4.70;1.45;;;;;;;11.46;nan;102502.47;5031910;28;20025;-53
2022/08/06 01:53:47;;;;;;;6.35;1.50;;;;;;;11.35;nan;102485.88;5031758;28;20041;-54
2022/08/06 01:56:13;;;;;;;4.15;1.80;;;;;;;11.67;nan;102548.84;5031612;28;20049;-54
2022/08/06 01:58:41;;;;;;;5.53;1.67;;;;;;;11.67;nan;102543.56;5033151;28;20034;-54
2022/08/06 02:01:11;;;;;;;3.28;1.50;;;;;;;11.40;nan;102491.09;5032884;28;20384;-59
2022/08/06 02:03:43;;;;;;;2.03;1.20;;;;;;;11.51;nan;102516.47;5015359;28;20037;-50
2022/08/06 02:06:09;;;;;;;4.35;1.35;;;;;;;11.70;nan;102549.69;5031472;28;20485;-56
2022/08/06 02:08:36;;;;;;;3.92;1.60;;;;;;;11.58;nan;102530.47;5032847;28;20033;-54
2022/08/06 02:11:03;;;;;;;2.38;1.30;;;;;;;11.48;nan;102526.16;5031441;28;20119;-49
2022/08/06 02:13:31;;;;;;;2.05;1.45;;;;;;;11.26;nan;102488.59;5031645;28;20025;-49
2022/08/06 02:15:57;;;;;;;3.65;1.42;;;;;;;11.61;nan;102559.47;5031570;28;20029;-53
2022/08/06 02:18:23;;;;;;;3.20;1.58;;;;;;;11.58;nan;102559.47;5031561;28;20030;-49
2022/08/06 02:20:51;;;;;;;3.42;1.25;;;;;;;11.55;nan;102555.13;5030951;28;20443;-49
2022/08/06 02:23:19;;;;;;;3.95;1.33;;;;;;;11.49;nan;102541.09;5031830;28;20419;-55
2022/08/06 02:25:46;;;;;;;2.38;1.30;;;;;;;11.24;nan;102508.78;5031618;28;20084;-51
2022/08/06 02:28:13;;;;;;;5.28;1.67;;;;;;;11.44;nan;102546.41;5031427;28;20037;-53
2022/08/06 02:30:41;;;;;;;5.63;1.60;;;;;;;11.49;nan;102559.56;5031075;28;20032;-52
2022/08/06 02:33:07;;;;;;;2.08;1.33;;;;;;;11.17;nan;102504.47;5031091;28;20052;-55
2022/08/06 02:35:46;;;;;;;2.25;1.40;;;;;;;11.40;nan;102549.09;5032398;28;20030;-49
2022/08/06 02:38:24;;;;;;;3.47;1.30;;;;;;;11.42;nan;102564.00;5031361;28;20025;-55
2022/08/06 02:40:56;;;;;;;5.40;1.65;;;;;;;11.40;nan;102559.63;5031006;28;20482;-49
2022/08/06 02:43:32;;;;;;;3.00;1.48;;;;;;;11.39;nan;102553.50;5032232;28;20403;-52
2022/08/06 02:46:00;;;;;;;1.77;1.10;;;;;;;11.38;nan;102556.16;5031180;28;20061;-49
2022/08/06 02:48:37;;;;;;;4.35;1.40;;;;;;;11.37;nan;102563.19;5030838;28;20033;-53
2022/08/06 02:51:06;;;;;;;3.10;1.30;;;;;;;10.93;nan;102487.09;5032312;28;20060;-52
2022/08/06 02:53:39;;;;;;;5.38;1.73;;;;;;;11.18;nan;102532.56;5030909;28;20044;-51
2022/08/06 02:56:08;;;;;;;3.28;1.30;;;;;;;11.30;nan;102557.06;5030905;28;20449;-50
2022/08/06 02:58:38;;;;;;;3.05;1.48;;;;;;;11.21;nan;102543.09;5030999;28;20124;-50
2022/08/06 03:01:08;;;;;;;4.97;1.42;;;;;;;11.30;nan;102572.00;5030740;28;20029;-50
2022/08/06 03:03:33;;;;;;;3.80;1.63;;;;;;;10.97;nan;102509.03;5031133;28;20037;-50
2022/08/06 03:06:01;;;;;;;5.18;2.05;;;;;;;11.03;nan;102515.09;5032195;28;20052;-50
2022/08/06 03:08:27;;;;;;;3.22;1.40;;;;;;;11.30;nan;102569.38;5030933;28;20029;-53
2022/08/06 03:10:54;;;;;;;4.22;1.33;;;;;;;10.93;nan;102502.03;5031964;28;20416;-51
2022/08/06 03:13:21;;;;;;;5.03;1.35;;;;;;;11.30;nan;102570.25;5030913;28;20128;-55
2022/08/06 03:15:47;;;;;;;3.35;1.55;;;;;;;11.23;nan;102557.16;5032224;28;20140;-53
2022/08/06 03:18:15;;;;;;;2.08;1.02;;;;;;;11.29;nan;102560.59;5030981;28;20049;-48
2022/08/06 03:20:40;;;;;;;6.38;1.42;;;;;;;11.13;nan;102540.53;5030923;28;20494;-51
2022/08/06 03:23:08;;;;;;;3.72;1.23;;;;;;;11.00;nan;102527.47;5014191;28;20038;-56
2022/08/06 03:25:35;;;;;;;3.88;1.50;;;;;;;10.91;nan;102507.34;5031988;28;20064;-56
2022/08/06 03:28:01;;;;;;;3.08;1.10;;;;;;;11.12;nan;102551.94;5031766;28;20026;-51
2022/08/06 03:30:26;;;;;;;2.88;1.00;;;;;;;11.19;nan;102566.84;5030724;28;20446;-55
2022/08/06 03:32:53;;;;;;;4.13;1.30;;;;;;;11.19;nan;102573.88;5031357;28;20080;-55
2022/08/06 03:35:19;;;;;;;3.53;1.30;;;;;;;11.03;nan;102556.44;5035760;28;20068;-48
2022/08/06 03:37:45;;;;;;;3.63;1.38;;;;;;;10.74;nan;102511.81;5034575;28;20076;-47
2022/08/06 03:40:12;;;;;;;3.05;1.35;;;;;;;11.09;nan;102578.31;5034403;28;20060;-58
2022/08/06 03:42:37;;;;;;;2.75;1.10;;;;;;;11.08;nan;102583.63;5034571;28;20055;-55
2022/08/06 03:45:04;;;;;;;2.08;1.30;;;;;;;10.95;nan;102569.63;5034781;28;20041;-49
2022/08/06 03:47:34;;;;;;;2.40;1.15;;;;;;;10.97;nan;102585.44;5017871;28;20037;-54
2022/08/06 03:50:05;;;;;;;3.60;1.70;;;;;;;11.07;nan;102592.41;5034058;28;20032;-50
2022/08/06 03:52:32;;;;;;;3.83;1.50;;;;;;;11.08;nan;102591.53;5034225;28;20400;-58
2022/08/06 03:55:03;;;;;;;3.60;1.63;;;;;;;11.07;nan;102598.53;5017575;28;20048;-53
2022/08/06 03:57:33;;;;;;;2.03;1.38;;;;;;;11.01;nan;102581.88;5035418;28;20044;-50
2022/08/06 04:00:00;;;;;;;5.38;1.50;;;;;;;11.02;nan;102596.81;5034012;28;20033;-49
2022/08/06 04:02:38;;;;;;;3.50;1.52;;;;;;;10.94;nan;102586.34;5034114;28;20120;-48
2022/08/06 04:05:04;;;;;;;5.25;2.08;;;;;;;11.02;nan;102600.34;5034023;28;20066;-52
2022/08/06 04:07:30;;;;;;;5.65;1.25;;;;;;;10.97;nan;102596.00;5017344;28;20468;-54
2022/08/06 04:09:56;;;;;;;2.70;1.80;;;;;;;10.92;nan;102587.22;5033976;28;20033;-53
2022/08/06 04:12:21;;;;;;;3.45;1.45;;;;;;;10.94;nan;102598.66;5034108;28;20034;-51
2022/08/06 04:14:47;;;;;;;5.32;1.30;;;;;;;10.97;nan;102614.44;5035359;28;20450;-51
2022/08/06 04:17:13;;;;;;;2.35;1.15;;;;;;;10.77;nan;102576.78;5033904;28;20053;-51
2022/08/06 04:19:39;;;;;;;4.75;1.83;;;;;;;10.94;nan;102612.69;5033638;28;20038;-51
2022/08/06 04:22:05;;;;;;;5.57;1.77;;;;;;;10.92;nan;102603.91;5033488;28;20033;-56
2022/08/06 04:24:30;;;;;;;1.55;1.00;;;;;;;10.91;nan;102623.25;5034925;28;20091;-56
2022/08/06 04:26:58;;;;;;;2.17;1.33;;;;;;;10.89;nan;102603.91;5033801;28;20041;-56
2022/08/06 04:29:23;;;;;;;4.32;1.67;;;;;;;10.91;nan;102625.00;5033536;28;20038;-50
2022/08/06 04:31:50;;;;;;;3.47;1.90;;;;;;;10.52;nan;102537.41;5033441;28;20399;-51
2022/08/06 04:34:21;;;;;;;4.45;2.03;;;;;;;10.94;nan;102617.09;5033528;28;20048;-48
2022/08/06 04:36:46;;;;;;;3.00;1.60;;;;;;;10.93;nan;102617.97;5033311;28;20033;-49
2022/08/06 04:39:12;;;;;;;3.15;1.83;;;;;;;10.89;nan;102605.69;5033561;28;20056;-48
2022/08/06 04:41:37;;;;;;;3.85;1.60;;;;;;;10.96;nan;102620.56;5016644;28;20033;-50
2022/08/06 04:44:03;;;;;;;5.35;1.60;;;;;;;10.61;nan;102547.91;5032662;28;20040;-47
2022/08/06 04:46:29;;;;;;;1.60;1.45;;;;;;;11.02;nan;102623.19;5033833;28;20033;-53
2022/08/06 04:48:54;;;;;;;3.90;1.95;;;;;;;10.73;nan;102568.03;5034217;28;20045;-50
2022/08/06 04:51:22;;;;;;;3.25;1.80;;;;;;;11.04;nan;102610.84;5034129;28;20033;-49
2022/08/06 04:53:47;;;;;;;3.38;1.92;;;;;;;11.08;nan;102617.88;5033333;28;20041;-55
2022/08/06 04:56:13;;;;;;;4.18;1.77;;;;;;;10.87;nan;102584.63;5033093;28;20041;-53
2022/08/06 04:58:38;;;;;;;2.03;1.70;;;;;;;10.84;nan;102574.09;5034257;28;20034;-50
2022/08/06 05:01:03;;;;;;;3.85;1.70;;;;;;;11.21;nan;102630.06;5033922;28;20033;-49
2022/08/06 05:03:29;;;;;;;4.80;1.75;;;;;;;11.25;nan;102631.81;5034022;28;20033;-52
2022/08/06 05:06:01;;;;;;;3.90;1.80;;;;;;;11.28;nan;102634.44;5034039;28;20038;-48
2022/08/06 05:08:27;;;;;;;;;;;;;;;11.28;nan;102632.66;5033398;28;20116;-50
2022/08/06 05:11:06;;;;;;;3.03;1.60;;;;;;;11.32;nan;102630.91;5034105;28;20015;-53
2022/08/06 05:13:35;;;;;;;3.83;1.60;;;;;;;11.38;nan;102636.13;5032888;28;20029;-56
2022/08/06 05:16:05;;;;;;;2.20;1.52;;;;;;;11.44;nan;102632.56;5033927;28;20091;-48
2022/08/06 05:18:34;;;;;;;4.90;1.63;;;;;;;11.26;nan;102592.28;5032507;28;20034;-49
2022/08/06 05:21:00;;;;;;;4.28;1.83;;;;;;;11.36;nan;102595.69;5032626;28;20419;-54
2022/08/06 05:23:53;;;;;;;3.28;1.60;;;;;;;11.65;nan;102633.25;5032471;28;20045;-49
2022/08/06 05:26:19;;;;;;;2.90;1.75;;;;;;;11.37;nan;102581.63;5032405;28;20082;-52
2022/08/06 05:28:44;;;;;;;4.05;1.58;;;;;;;11.69;nan;102627.13;5032672;28;20464;-56
2022/08/06 05:31:10;;;;;;;5.10;1.88;;;;;;;11.81;nan;102642.84;5032198;28;20061;-50
2022/08/06 05:33:37;;;;;;;4.25;2.13;;;;;;;11.88;nan;102654.19;5033614;28;20041;-53
2022/08/06 05:36:06;;;;;;;3.17;1.73;;;;;;;11.97;nan;102647.94;5033227;28;20434;-53
2022/08/06 05:38:34;;;;;;;4.28;1.55;;;;;;;11.68;nan;102591.03;5033450;28;20029;-47
2022/08/06 05:40:59;;;;;;;4.15;1.67;;;;;;;11.89;nan;102612.84;5032124;28;20417;-49
2022/08/06 05:43:24;;;;;;;1.55;1.40;;;;;;;11.92;nan;102591.72;5033303;28;20033;-52
2022/08/06 05:45:53;;;;;;;3.28;1.48;;;;;;;12.03;nan;102601.25;5032192;28;20044;-51
2022/08/06 05:48:20;;;;;;;3.50;1.50;;;;;;;12.52;nan;102656.19;5033554;28;20033;-52
2022/08/06 05:50:54;;;;;;;2.63;1.17;;;;;;;12.39;nan;102607.91;5032256;28;20117;-51
2022/08/06 05:53:31;;;;;;;3.25;1.42;;;;;;;12.71;nan;102637.44;5031718;28;20076;-48
2022/08/06 05:56:01;;;;;;;3.22;1.15;;;;;;;13.01;nan;102681.09;5032640;28;20430;-53
2022/08/06 05:58:40;;;;;;;4.43;1.00;;;;;;;13.16;nan;102669.50;5031967;28;20360;-54
2022/08/06 06:01:07;;;;;;;1.77;0.90;;;;;;;12.96;nan;102612.44;5031561;28;20468;-54
2022/08/06 06:03:33;;;;;;;4.18;0.90;;;;;;;13.12;nan;102626.34;5031696;28;20040;-56
2022/08/06 06:06:00;;;;;;;1.08;0.77;;;;;;;13.59;nan;102691.75;5031488;28;20376;-60
2022/08/06 06:08:26;;;;;;;2.40;1.00;;;;;;;13.75;nan;102689.72;5031818;28;20388;-49
2022/08/06 06:10:52;;;;;;;0.98;0.88;;;;;;;13.87;nan;102687.75;5031757;28;20037;-55
2022/08/06 06:13:18;;;;;;;2.45;1.10;;;;;;;13.73;nan;102644.78;5031677;28;20129;-48
2022/08/06 06:15:56;;;;;;;2.15;1.10;;;;;;;13.78;nan;102640.25;5031458;28;20068;-48
2022/08/06 06:18:39;;;;;;;2.58;1.00;;;;;;;13.96;nan;102658.47;5031641;28;20037;-49
2022/08/06 06:21:22;;;;;;;2.80;1.00;;;;;;;14.43;nan;102707.09;5032469;28;20487;-50
2022/08/06 06:24:00;;;;;;;1.23;0.80;;;;;;;14.19;nan;102650.13;5031280;28;20084;-48
2022/08/06 06:26:37;;;;;;;2.72;0.60;;;;;;;14.40;nan;102668.28;5031637;28;20059;-48
2022/08/06 06:29:17;;;;;;;1.33;0.85;;;;;;;14.89;nan;102723.84;5032407;28;20104;-52
2022/08/06 06:32:16;;;;;;;0.52;0.47;;;;;;;15.08;nan;102727.88;5030842;28;20468;-49
2022/08/06 06:35:29;;;;;;;1.15;0.80;;;;;;;15.29;nan;102741.59;5031454;28;20025;-48
2022/08/06 06:38:15;;;;;;;2.13;0.77;;;;;;;15.45;nan;102745.63;5014021;28;20041;-48
2022/08/06 06:40:52;;;;;;;1.27;0.68;;;;;;;15.61;nan;102760.34;5032464;28;20041;-54
2022/08/06 06:43:53;;;;;;;1.77;1.00;;;;;;;15.83;nan;102750.97;5031075;28;20025;-54
2022/08/06 06:46:46;;;;;;;1.27;0.45;;;;;;;15.97;nan;102759.47;5032384;28;20492;-54
2022/08/06 06:49:35;;;;;;;2.45;0.80;;;;;;;16.14;nan;102767.88;5030553;28;20042;-49
2022/08/06 06:52:14;;;;;;;3.17;0.95;;;;;;;15.98;nan;102699.25;5030944;28;20435;-55
2022/08/06 06:54:44;;;;;;;2.35;0.40;;;;;;;16.33;nan;102750.59;5031242;28;20033;-53
2022/08/06 06:57:11;;;;;;;3.20;0.70;;;;;;;16.55;nan;102780.16;5030974;28;20083;-50
2022/08/06 06:59:39;;;;;;;3.85;0.80;;;;;;;16.62;nan;102760.47;5032300;28;20069;-52
2022/08/06 07:02:05;;;;;;;2.47;0.55;;;;;;;16.60;nan;102748.13;5032181;28;20037;-54
2022/08/06 07:04:31;;;;;;;2.58;0.60;;;;;;;16.43;nan;102711.34;5032074;28;20502;-56
2022/08/06 07:06:58;;;;;;;2.85;0.55;;;;;;;16.85;nan;102784.66;5032112;28;20040;-50
2022/08/06 07:09:25;;;;;;;5.28;0.80;;;;;;;16.90;nan;102757.06;5034397;28;20168;-52
2022/08/06 07:11:54;;;;;;;3.65;0.60;;;;;;;17.16;nan;102781.97;5034972;28;20033;-52
2022/08/06 07:14:21;;;;;;;1.13;0.40;;;;;;;17.05;nan;102738.84;5036088;28;20457;-59
2022/08/06 07:16:48;;;;;;;1.35;0.60;;;;;;;16.98;nan;102721.34;5036090;28;20395;-56
2022/08/06 07:19:15;;;;;;;4.50;0.90;;;;;;;17.51;nan;102796.94;5035962;28;20109;-49
2022/08/06 07:21:42;;;;;;;2.60;0.77;;;;;;;17.33;nan;102736.25;5035117;28;20369;-55
2022/08/06 07:24:12;;;;;;;1.95;0.60;;;;;;;17.76;nan;102803.28;5034754;28;20388;-50
2022/08/06 07:26:37;;;;;;;3.88;1.00;;;;;;;17.73;nan;102806.03;5034767;28;20030;-52
2022/08/06 07:29:03;;;;;;;0.90;0.65;;;;;;;17.86;nan;102810.03;5035901;28;20136;-56
2022/08/06 07:31:29;;;;;;;1.08;0.50;;;;;;;17.91;nan;102793.94;5034334;28;20056;-51
2022/08/06 07:33:54;;;;;;;1.95;0.70;;;;;;;18.20;nan;102798.31;5034365;28;20049;-51
2022/08/06 07:36:21;;;;;;;2.35;1.08;;;;;;;18.34;nan;102761.38;5034554;28;20092;-52
2022/08/06 07:38:47;;;;;;;2.90;0.80;;;;;;;18.60;nan;102792.50;5035850;28;20025;-53
2022/08/06 07:41:13;;;;;;;1.27;0.60;;;;;;;18.81;nan;102797.97;5035620;28;20026;-48
2022/08/06 07:43:42;;;;;;;2.58;1.00;;;;;;;19.24;nan;102810.63;5035685;28;20129;-49
2022/08/06 07:46:10;;;;;;;1.98;0.80;;;;;;;19.67;nan;102825.06;5033959;28;20029;-59
2022/08/06 07:48:39;;;;;;;3.10;0.77;;;;;;;19.81;nan;102786.16;5035630;28;20068;-52
2022/08/06 07:51:05;;;;;;;1.45;0.63;;;;;;;20.13;nan;102836.53;5034378;28;20164;-47
2022/08/06 07:53:32;;;;;;;2.78;0.90;;;;;;;19.34;nan;102769.31;5017460;28;20048;-52
2022/08/06 07:55:59;;;;;;;2.38;0.88;;;;;;;19.43;nan;102757.41;5035405;28;20037;-59
2022/08/06 07:58:25;;;;;;;1.85;0.80;;;;;;;19.78;nan;102772.94;5017555;28;20033;-51
2022/08/06 08:00:50;;;;;;;2.53;1.15;;;;;;;20.33;nan;102824.16;5034127;28;20033;-49
2022/08/06 08:08:46;;;;;;;1.95;1.02;;;;;;;19.45;nan;102816.97;5034186;28;20044;-53
2022/08/06 08:11:16;;;;;;;1.73;0.60;;;;;;;18.90;nan;102826.13;5033613;28;20033;-51
2022/08/06 08:13:41;;;;;;;3.72;0.88;;;;;;;18.51;nan;102826.59;5035138;28;20029;-59
2022/08/06 08:16:08;;;;;;;2.83;0.93;;;;;;;17.91;nan;102776.16;5034925;28;20072;-53
2022/08/06 08:18:34;;;;;;;2.53;0.90;;;;;;;18.03;nan;102821.97;5033706;28;20041;-52
2022/08/06 08:21:01;;;;;;;3.10;0.65;;;;;;;18.61;nan;102818.28;5035013;28;20472;-48
2022/08/06 08:23:30;;;;;;;1.88;0.82;;;;;;;19.59;nan;102825.31;5034350;28;20068;-54
2022/08/06 08:25:58;;;;;;;2.15;0.50;;;;;;;20.59;nan;102800.72;5032927;28;20476;-53
2022/08/06 08:28:23;;;;;;;3.15;0.80;;;;;;;21.51;nan;102859.94;5033149;28;20029;-55
2022/08/06 08:30:49;;;;;;;0.75;0.40;;;;;;;22.21;nan;102856.66;5034254;28;20029;-50
2022/08/06 08:33:15;;;;;;;3.03;0.77;;;;;;;22.20;nan;102820.03;5034689;28;20068;-55
2022/08/06 08:35:41;;;;;;;1.40;0.60;;;;;;;21.61;nan;102815.72;5033121;28;20383;-51
2022/08/06 08:38:07;;;;;;;2.00;0.85;;;;;;;21.24;nan;102866.59;5034481;28;20136;-49
2022/08/06 08:40:34;;;;;;;1.25;0.65;;;;;;;20.23;nan;102803.09;5034790;28;20156;-53
2022/08/06 08:43:01;;;;;;;2.33;0.52;;;;;;;19.91;nan;102862.34;5034698;28;20064;-49
2022/08/06 08:45:28;;;;;;;2.28;0.80;;;;;;;20.25;nan;102832.50;5033256;28;20033;-53
2022/08/06 08:47:53;;;;;;;2.60;1.02;;;;;;;21.32;nan;102848.34;5034580;28;20034;-55
2022/08/06 08:50:25;;;;;;;2.85;0.82;;;;;;;22.37;nan;102853.13;5033032;28;20095;-53
2022/08/06 08:52:53;;;;;;;2.90;0.52;;;;;;;23.14;nan;102820.50;5034385;28;20486;-55
2022/08/06 08:55:24;;;;;;;1.33;0.52;;;;;;;23.94;nan;102865.31;5032980;28;20038;-57
2022/08/06 08:57:52;;;;;;;2.10;0.47;;;;;;;24.31;nan;102825.56;5034285;28;20116;-54
2022/08/06 09:00:18;;;;;;;0.93;0.55;;;;;;;24.64;nan;102827.09;5033042;28;20044;-53
2022/08/06 09:02:45;;;;;;;1.15;0.47;;;;;;;25.32;nan;102846.28;5034129;28;20033;-56
2022/08/06 09:05:10;;;;;;;1.60;0.60;;;;;;;25.89;nan;102875.94;5033844;28;20473;-60
2022/08/06 09:07:36;;;;;;;0.90;0.60;;;;;;;25.62;nan;102849.78;5032473;28;20040;-55
2022/08/06 09:10:02;;;;;;;1.52;0.70;;;;;;;25.64;nan;102874.81;5032741;28;20433;-58
2022/08/06 09:12:27;;;;;;;3.72;0.73;;;;;;;24.38;nan;102883.44;5033835;28;20029;-54
2022/08/06 09:14:53;;;;;;;0.88;0.40;;;;;;;23.34;nan;102882.97;5034058;28;20045;-58
2022/08/06 09:17:18;;;;;;;1.10;0.55;;;;;;;22.69;nan;102882.84;5033564;28;20037;-56
2022/08/06 09:19:44;;;;;;;1.45;0.63;;;;;;;22.66;nan;102888.38;5033642;28;20039;-57
2022/08/06 09:22:10;;;;;;;2.33;0.50;;;;;;;22.82;nan;102868.75;5033852;28;20531;-56
2022/08/06 09:24:36;;;;;;;2.15;0.45;;;;;;;23.74;nan;102884.38;5032517;28;20029;-56
2022/08/06 09:27:10;;;;;;;1.02;0.55;;;;;;;23.79;nan;102831.19;5032350;28;20465;-55
2022/08/06 09:29:35;;;;;;;1.40;0.43;;;;;;;24.61;nan;102883.84;5032041;28;20040;-54
2022/08/06 09:32:06;;;;;;;1.40;0.40;;;;;;;25.04;nan;102835.50;5031141;28;20045;-54
2022/08/06 09:34:37;;;;;;;1.90;0.30;;;;;;;25.28;nan;102842.03;5032124;28;20021;-58
2022/08/06 09:37:02;;;;;;;1.80;0.52;;;;;;;25.96;nan;102882.66;5033507;28;20033;-55
2022/08/06 09:39:43;;;;;;;2.15;0.60;;;;;;;26.11;nan;102846.56;5033552;28;20486;-60
2022/08/06 09:42:09;;;;;;;1.58;1.00;;;;;;;25.62;nan;102839.00;5032234;28;20392;-56
2022/08/06 09:44:34;;;;;;;1.38;0.70;;;;;;;24.87;nan;102876.91;5032010;28;20064;-57
2022/08/06 09:47:00;;;;;;;2.15;0.50;;;;;;;24.32;nan;102883.81;5031973;28;20099;-57
2022/08/06 09:49:26;;;;;;;2.15;0.40;;;;;;;24.10;nan;102889.56;5033095;28;20041;-57
2022/08/06 09:52:16;;;;;;;0.85;0.60;;;;;;;24.86;nan;102888.69;5031942;28;20086;-56
2022/08/06 09:54:42;;;;;;;0.50;0.20;;;;;;;25.26;nan;102888.94;5033307;28;20029;-51
2022/08/06 09:57:07;;;;;;;4.43;0.50;;;;;;;25.41;nan;102894.25;5032887;28;20095;-59
2022/08/06 09:59:47;;;;;;;1.65;0.40;;;;;;;25.60;nan;102848.13;5015268;28;20041;-62
2022/08/06 10:02:14;;;;;;;4.03;0.65;;;;;;;26.31;nan;102880.38;5033036;28;20619;-64
2022/08/06 10:04:39;;;;;;;2.00;0.50;;;;;;;25.78;nan;102848.78;5032953;28;20057;-60
2022/08/06 10:07:05;;;;;;;1.58;0.50;;;;;;;25.54;nan;102876.34;5033038;28;20064;-59
2022/08/06 10:09:32;;;;;;;7.78;1.20;;;;;;;25.57;nan;102880.69;5033020;28;20040;-60
2022/08/06 10:11:58;;;;;;;0.57;0.40;;;;;;;25.65;nan;102886.47;5015185;28;20041;-63
2022/08/06 10:14:29;;;;;;;1.30;0.30;;;;;;;25.11;nan;102882.66;5032906;28;20411;-64
2022/08/06 10:17:13;;;;;;;;;;;;;;;24.68;nan;102886.16;5031883;28;20035;-63
2022/08/06 10:19:41;;;;;;;1.38;0.40;;;;;;;24.89;nan;102891.19;5032924;28;19913;-66
2022/08/06 10:22:16;;;;;;;1.90;0.60;;;;;;;25.31;nan;102902.97;5032728;28;20037;-61
2022/08/06 10:24:46;;;;;;;1.58;0.40;;;;;;;25.70;nan;102890.59;5031866;28;20075;-63
2022/08/06 10:27:24;;;;;;;1.10;0.38;;;;;;;26.22;nan;102854.84;5030736;28;20095;-63
2022/08/06 10:29:52;;;;;;;1.08;0.55;;;;;;;26.39;nan;102888.81;5030870;28;20029;-63
2022/08/06 10:32:23;;;;;;;1.67;0.40;;;;;;;26.92;nan;102893.31;5014478;28;20049;-64
2022/08/06 10:34:49;;;;;;;1.40;0.60;;;;;;;27.16;nan;102875.41;5030411;28;20499;-61
2022/08/06 10:37:16;;;;;;;1.13;0.45;;;;;;;27.26;nan;102907.09;5030855;28;20132;-62
2022/08/06 10:39:46;;;;;;;1.20;0.43;;;;;;;27.06;nan;102895.94;5031091;28;20030;-62
2022/08/06 10:42:12;;;;;;;1.27;0.50;;;;;;;27.69;nan;102890.56;5031950;28;20038;-62
2022/08/06 10:44:38;;;;;;;0.52;0.20;;;;;;;27.14;nan;102843.09;5030782;28;20030;-62
2022/08/06 10:47:04;;;;;;;0.57;0.40;;;;;;;28.11;nan;102898.25;5030968;28;20063;-61
2022/08/06 10:49:30;;;;;;;1.05;0.50;;;;;;;27.78;nan;102857.41;5032292;28;20093;-64
2022/08/06 10:51:56;;;;;;;1.35;0.20;;;;;;;27.85;nan;102891.16;5032191;28;20044;-63
2022/08/06 10:54:21;;;;;;;1.98;0.50;;;;;;;27.59;nan;102859.72;5032480;28;20392;-63
2022/08/06 10:56:46;;;;;;;1.70;0.40;;;;;;;27.91;nan;102906.94;5032258;28;20045;-61
2022/08/06 10:59:14;;;;;;;0.22;0.13;;;;;;;28.08;nan;102897.66;5031057;28;20069;-60
2022/08/06 11:02:00;;;;;;;2.08;0.40;;;;;;;26.59;nan;102889.22;5032195;28;20036;-60
2022/08/06 11:04:41;;;;;;;0.93;0.40;;;;;;;26.92;nan;102888.78;5031862;28;20105;-59
2022/08/06 11:07:27;;;;;;;0.40;0.40;;;;;;;26.83;nan;102851.59;5030916;28;20029;-60
2022/08/06 11:10:29;;;;;;;0.60;0.22;;;;;;;27.38;nan;102891.84;5031693;28;20109;-61
2022/08/06 11:13:16;;;;;;;1.40;0.40;;;;;;;27.47;nan;102891.22;5031677;28;20468;-62
2022/08/06 11:15:42;;;;;;;1.08;0.38;;;;;;;27.30;nan;102876.16;5032082;28;20511;-61
2022/08/06 11:18:10;;;;;;;0.90;0.30;;;;;;;27.58;nan;102877.81;5030677;28;20076;-62
2022/08/06 11:20:40;;;;;;;1.05;0.32;;;;;;;27.67;nan;102836.53;5030682;28;20029;-61
2022/08/06 11:23:11;;;;;;;0.57;0.30;;;;;;;27.81;nan;102878.84;5031718;28;20041;-61
2022/08/06 11:25:41;;;;;;;2.10;0.47;;;;;;;28.15;nan;102885.38;5032151;28;20104;-61
2022/08/06 11:28:07;;;;;;;0.60;0.25;;;;;;;28.45;nan;102873.09;5031874;28;20040;-63
2022/08/06 11:30:38;;;;;;;2.00;0.45;;;;;;;29.14;nan;102873.19;5030936;28;20108;-59
2022/08/06 11:33:04;;;;;;;0.77;0.50;;;;;;;29.05;nan;102839.53;5031629;28;20064;-58
2022/08/06 11:35:33;;;;;;;1.85;0.50;;;;;;;28.44;nan;102875.91;5031792;28;20046;-61
2022/08/06 11:38:02;;;;;;;0.50;0.50;;;;;;;28.44;nan;102871.38;5032081;28;20425;-60
2022/08/06 11:40:28;;;;;;;1.45;0.50;;;;;;;27.76;nan;102868.34;5030623;28;20388;-59
2022/08/06 11:42:53;;;;;;;0.90;0.70;;;;;;;27.43;nan;102848.28;5014081;28;20033;-61
2022/08/06 11:45:19;;;;;;;0.75;0.50;;;;;;;27.98;nan;102875.75;5031579;28;20045;-60
2022/08/06 11:48:05;;;;;;;0.65;0.50;;;;;;;28.81;nan;102872.13;5031992;28;20132;-61
2022/08/06 11:50:30;;;;;;;2.00;0.52;;;;;;;29.49;nan;102828.75;5031935;28;20376;-60
2022/08/06 11:52:55;;;;;;;1.02;0.40;;;;;;;28.84;nan;102828.53;5030597;28;20048;-60
2022/08/06 11:55:21;;;;;;;0.80;0.55;;;;;;;28.67;nan;102831.69;5034758;28;20033;-61
2022/08/06 11:57:46;;;;;;;3.03;0.68;;;;;;;28.89;nan;102856.16;5035348;28;20069;-59